Time;durP1;ratioP1;P1;durP2;ratioP2;P2;SDS_P1;SDS_P2;PMS_P1;PMS_P2;Temp;Humidity;BMP_temperature;BMP_pressure;BME280_temperature;BME280_humidity;BME280_pressure;Samples;Min_cycle;Max_cycle;Signal;HPM_P1;HPM_P2
2021/10/09 00:01:06;;;;;;;12.48;8.70;;;;;;;;;;4962713;28;20031;-70
2021/10/09 00:03:31;;;;;;;15.55;9.27;;;;;;;;;;4984998;28;20054;-71
2021/10/09 00:05:56;;;;;;;12.43;9.52;;;;;;;;;;5003442;28;20128;-71
2021/10/09 00:08:21;;;;;;;12.30;9.10;;;;;;;;;;4986247;28;20022;-71
2021/10/09 00:10:47;;;;;;;11.88;8.85;;;;;;;;;;4961810;28;20030;-71
2021/10/09 00:13:12;;;;;;;12.00;9.10;;;;;;;;;;4977687;28;20022;-71
2021/10/09 00:15:38;;;;;;;14.50;9.13;;;;;;;;;;4995582;28;20058;-71
2021/10/09 00:18:03;;;;;;;14.18;9.73;;;;;;;;;;4977450;28;20041;-70
2021/10/09 00:20:28;;;;;;;12.90;9.30;;;;;;;;;;4996389;28;20487;-70
2021/10/09 00:22:54;;;;;;;15.57;9.73;;;;;;;;;;5012502;28;20029;-71
2021/10/09 00:25:20;;;;;;;13.60;9.10;;;;;;;;;;4981434;28;20429;-71
2021/10/09 00:27:45;;;;;;;16.83;8.98;;;;;;;;;;4995905;28;20023;-71
2021/10/09 00:30:10;;;;;;;12.15;8.23;;;;;;;;;;4977090;28;20034;-70
2021/10/09 00:32:36;;;;;;;12.98;9.48;;;;;;;;;;4977698;28;20018;-70
2021/10/09 00:35:01;;;;;;;15.80;9.90;;;;;;;;;;4995060;28;20081;-71
2021/10/09 00:37:26;;;;;;;12.52;9.35;;;;;;;;;;4994879;28;20058;-71
2021/10/09 00:39:51;;;;;;;14.35;9.80;;;;;;;;;;4956260;28;20037;-71
2021/10/09 00:42:16;;;;;;;12.07;9.15;;;;;;;;;;4975475;28;20049;-71
2021/10/09 00:44:42;;;;;;;15.73;10.60;;;;;;;;;;4977763;28;20528;-71
2021/10/09 00:47:07;;;;;;;17.40;9.82;;;;;;;;;;4994757;28;20421;-69
2021/10/09 00:49:32;;;;;;;14.20;9.35;;;;;;;;;;4994590;28;20534;-70
2021/10/09 00:52:04;;;;;;;15.55;9.95;;;;;;;;;;4977094;28;20046;-70
2021/10/09 00:54:30;;;;;;;15.10;10.77;;;;;;;;;;5000788;28;20036;-69
2021/10/09 00:56:56;;;;;;;16.23;11.13;;;;;;;;;;4991692;28;20050;-70
2021/10/09 00:59:24;;;;;;;13.82;10.38;;;;;;;;;;4996535;28;20575;-70
2021/10/09 01:01:50;;;;;;;18.17;10.60;;;;;;;;;;5013242;28;20051;-70
2021/10/09 01:04:17;;;;;;;16.73;9.75;;;;;;;;;;4979832;28;20218;-70
2021/10/09 01:06:42;;;;;;;13.82;9.95;;;;;;;;;;5011598;28;20060;-70
2021/10/09 01:09:07;;;;;;;13.80;9.55;;;;;;;;;;4995436;28;20072;-70
2021/10/09 01:11:32;;;;;;;13.93;9.55;;;;;;;;;;4995503;28;20049;-70
2021/10/09 01:13:58;;;;;;;13.63;8.93;;;;;;;;;;5013757;28;20025;-71
2021/10/09 01:16:24;;;;;;;16.60;9.02;;;;;;;;;;4995243;28;20030;-71
2021/10/09 01:18:53;;;;;;;14.75;9.75;;;;;;;;;;5012710;28;20061;-72
2021/10/09 01:21:20;;;;;;;13.82;9.38;;;;;;;;;;5013897;28;20030;-71
2021/10/09 01:23:45;;;;;;;14.48;9.65;;;;;;;;;;4996666;28;20023;-71
2021/10/09 01:26:10;;;;;;;15.00;9.80;;;;;;;;;;4989516;28;20041;-71
2021/10/09 01:28:37;;;;;;;13.50;8.95;;;;;;;;;;5011790;28;20021;-71
2021/10/09 01:31:03;;;;;;;13.82;8.98;;;;;;;;;;5013552;28;20036;-71
2021/10/09 01:33:28;;;;;;;17.55;9.68;;;;;;;;;;5013325;28;20026;-70
2021/10/09 01:35:55;;;;;;;13.48;8.98;;;;;;;;;;5012955;28;20431;-70
2021/10/09 01:38:21;;;;;;;13.93;9.38;;;;;;;;;;4994759;28;20120;-69
2021/10/09 01:40:46;;;;;;;14.23;9.85;;;;;;;;;;4996091;28;20105;-70
2021/10/09 01:43:12;;;;;;;12.98;9.30;;;;;;;;;;5012963;28;20057;-70
2021/10/09 01:45:38;;;;;;;14.15;9.75;;;;;;;;;;5013159;28;20042;-70
2021/10/09 01:48:03;;;;;;;14.48;9.70;;;;;;;;;;5012923;28;20026;-71
2021/10/09 01:50:28;;;;;;;14.70;9.40;;;;;;;;;;5012913;28;20125;-71
2021/10/09 01:52:53;;;;;;;15.20;9.95;;;;;;;;;;4994601;28;20080;-71
2021/10/09 01:55:18;;;;;;;13.77;10.00;;;;;;;;;;4994301;28;20632;-71
2021/10/09 01:57:44;;;;;;;14.88;10.50;;;;;;;;;;4991315;28;20062;-71
2021/10/09 02:00:09;;;;;;;14.40;9.63;;;;;;;;;;4992130;28;20077;-71
2021/10/09 02:02:34;;;;;;;13.80;9.50;;;;;;;;;;4992406;28;20014;-71
2021/10/09 02:05:00;;;;;;;13.60;10.02;;;;;;;;;;4991370;28;20038;-71
2021/10/09 02:07:25;;;;;;;15.93;9.80;;;;;;;;;;4984476;28;20026;-71
2021/10/09 02:09:52;;;;;;;12.00;8.70;;;;;;;;;;4992463;28;20030;-71
2021/10/09 02:12:17;;;;;;;15.00;10.18;;;;;;;;;;4993189;28;20080;-71
2021/10/09 02:14:54;;;;;;;14.30;9.43;;;;;;;;;;4991697;28;20030;-71
2021/10/09 02:28:05;;;;;;;14.65;9.60;;;;;;;;;;4975131;28;20045;-71
2021/10/09 02:30:30;;;;;;;11.55;9.27;;;;;;;;;;4980681;28;20452;-71
2021/10/09 02:32:56;;;;;;;16.10;10.35;;;;;;;;;;4987682;28;20037;-71
2021/10/09 02:35:21;;;;;;;14.88;10.10;;;;;;;;;;4993147;28;20019;-72
2021/10/09 02:37:46;;;;;;;12.73;9.82;;;;;;;;;;4992364;28;20468;-71
2021/10/09 02:40:12;;;;;;;17.45;10.25;;;;;;;;;;4992212;28;20428;-71
2021/10/09 02:42:37;;;;;;;13.75;9.88;;;;;;;;;;4990894;28;20022;-71
2021/10/09 02:45:03;;;;;;;18.48;11.25;;;;;;;;;;4992831;28;20022;-72
2021/10/09 02:47:28;;;;;;;13.93;9.95;;;;;;;;;;5008446;28;20018;-72
2021/10/09 02:49:53;;;;;;;13.98;9.65;;;;;;;;;;4978675;28;20037;-69
2021/10/09 02:52:18;;;;;;;13.20;9.50;;;;;;;;;;4997068;28;20038;-71
2021/10/09 02:54:43;;;;;;;16.67;10.52;;;;;;;;;;4988217;28;20050;-71
2021/10/09 02:57:09;;;;;;;15.20;9.57;;;;;;;;;;5002451;28;20144;-71
2021/10/09 02:59:34;;;;;;;16.70;10.88;;;;;;;;;;5011440;28;20030;-71
2021/10/09 03:01:59;;;;;;;14.82;10.25;;;;;;;;;;5011633;28;20420;-71
2021/10/09 03:04:24;;;;;;;17.83;11.88;;;;;;;;;;4994292;28;20037;-71
2021/10/09 03:06:49;;;;;;;15.68;11.00;;;;;;;;;;4994041;28;20030;-71
2021/10/09 03:09:14;;;;;;;16.23;10.57;;;;;;;;;;5011446;28;20025;-71
2021/10/09 03:11:40;;;;;;;17.70;10.68;;;;;;;;;;4993862;28;20030;-71
2021/10/09 03:14:05;;;;;;;17.83;10.55;;;;;;;;;;5010710;28;20496;-72
2021/10/09 03:16:30;;;;;;;16.45;10.98;;;;;;;;;;5011955;28;20029;-71
2021/10/09 03:18:55;;;;;;;17.08;10.35;;;;;;;;;;5011478;28;20100;-71
2021/10/09 03:21:21;;;;;;;13.55;9.93;;;;;;;;;;5011287;28;20068;-71
2021/10/09 03:23:46;;;;;;;14.50;10.23;;;;;;;;;;4993409;28;20491;-71
2021/10/09 03:26:11;;;;;;;16.45;10.57;;;;;;;;;;4991140;28;20034;-71
2021/10/09 03:28:36;;;;;;;14.40;9.98;;;;;;;;;;4993897;28;20029;-71
2021/10/09 03:31:02;;;;;;;15.90;10.35;;;;;;;;;;5015429;28;20025;-72
2021/10/09 03:33:27;;;;;;;14.25;10.32;;;;;;;;;;5011884;28;20031;-71
2021/10/09 03:35:52;;;;;;;15.02;10.10;;;;;;;;;;4997754;28;20037;-71
2021/10/09 03:38:17;;;;;;;16.48;9.70;;;;;;;;;;4997273;28;20021;-71
2021/10/09 03:40:46;;;;;;;14.65;9.60;;;;;;;;;;5015390;28;20599;-71
2021/10/09 03:43:15;;;;;;;15.32;9.70;;;;;;;;;;5015273;28;20014;-71
2021/10/09 03:45:52;;;;;;;14.32;9.90;;;;;;;;;;5013529;28;20029;-71
2021/10/09 03:53:31;;;;;;;13.63;9.82;;;;;;;;;;5014727;28;20506;-71
2021/10/09 03:55:57;;;;;;;13.95;9.77;;;;;;;;;;5002845;28;20045;-71
2021/10/09 03:58:22;;;;;;;17.77;10.20;;;;;;;;;;5011736;28;20080;-71
2021/10/09 04:00:47;;;;;;;12.77;9.80;;;;;;;;;;4996937;28;20033;-72
2021/10/09 04:03:12;;;;;;;15.60;9.30;;;;;;;;;;4997430;28;20484;-72
2021/10/09 04:05:37;;;;;;;15.32;9.32;;;;;;;;;;5014540;28;20409;-71
2021/10/09 04:08:06;;;;;;;12.65;9.82;;;;;;;;;;4997159;28;20022;-71
2021/10/09 04:10:33;;;;;;;13.60;9.13;;;;;;;;;;5014497;28;20784;-71
2021/10/09 04:12:58;;;;;;;12.25;8.63;;;;;;;;;;4997072;28;20388;-71
2021/10/09 04:15:23;;;;;;;12.80;9.27;;;;;;;;;;5014480;28;20017;-71
2021/10/09 04:17:48;;;;;;;13.90;9.20;;;;;;;;;;4997041;28;20030;-71
2021/10/09 04:20:13;;;;;;;16.23;10.20;;;;;;;;;;5014460;28;20029;-71
2021/10/09 04:22:38;;;;;;;13.23;9.50;;;;;;;;;;4980835;28;20517;-71
2021/10/09 04:25:06;;;;;;;15.02;9.60;;;;;;;;;;5012906;28;20488;-71
2021/10/09 04:27:31;;;;;;;14.60;9.70;;;;;;;;;;5013874;28;20026;-72
2021/10/09 04:29:56;;;;;;;14.83;10.17;;;;;;;;;;4980606;28;20040;-71
2021/10/09 04:32:21;;;;;;;13.48;9.95;;;;;;;;;;4980534;28;20693;-71
2021/10/09 04:34:46;;;;;;;11.93;8.48;;;;;;;;;;5014594;28;20072;-72
2021/10/09 04:37:12;;;;;;;12.52;8.88;;;;;;;;;;5013424;28;20030;-72
2021/10/09 04:39:37;;;;;;;15.05;9.13;;;;;;;;;;5013189;28;20408;-72
2021/10/09 04:42:02;;;;;;;13.55;8.95;;;;;;;;;;4996731;28;20112;-70
2021/10/09 04:44:28;;;;;;;12.77;9.10;;;;;;;;;;5014653;28;20034;-70
2021/10/09 04:46:53;;;;;;;13.15;9.50;;;;;;;;;;5013711;28;20033;-70
2021/10/09 04:49:18;;;;;;;14.13;9.77;;;;;;;;;;5014469;28;20022;-71
2021/10/09 04:51:43;;;;;;;17.20;10.00;;;;;;;;;;5013432;28;20500;-71
2021/10/09 04:54:08;;;;;;;16.27;11.13;;;;;;;;;;5013840;28;20026;-71
2021/10/09 04:56:34;;;;;;;17.43;10.67;;;;;;;;;;5011746;28;20057;-71
2021/10/09 04:58:59;;;;;;;14.93;9.80;;;;;;;;;;5013749;28;20025;-70
2021/10/09 05:01:24;;;;;;;13.83;9.50;;;;;;;;;;5013846;28;20029;-71
2021/10/09 05:03:49;;;;;;;15.00;9.90;;;;;;;;;;5013848;28;20029;-71
2021/10/09 05:06:14;;;;;;;16.07;10.07;;;;;;;;;;5013051;28;20029;-71
2021/10/09 05:08:40;;;;;;;15.50;9.40;;;;;;;;;;4995525;28;20125;-70
2021/10/09 05:11:05;;;;;;;13.97;9.60;;;;;;;;;;4996353;28;20034;-70
2021/10/09 05:13:30;;;;;;;18.27;10.10;;;;;;;;;;5013029;28;20392;-71
2021/10/09 05:15:55;;;;;;;14.23;10.03;;;;;;;;;;4996307;28;20026;-70
2021/10/09 05:18:20;;;;;;;13.90;9.40;;;;;;;;;;4995341;28;20036;-70
2021/10/09 05:20:46;;;;;;;15.73;9.00;;;;;;;;;;5013671;28;20025;-69
2021/10/09 05:23:11;;;;;;;12.30;9.10;;;;;;;;;;5012428;28;20112;-70
2021/10/09 05:25:37;;;;;;;13.67;9.20;;;;;;;;;;4975023;28;20465;-70
2021/10/09 05:28:08;;;;;;;15.27;9.97;;;;;;;;;;5005342;28;20037;-70
2021/10/09 05:30:34;;;;;;;13.98;9.48;;;;;;;;;;4995812;28;20033;-69
2021/10/09 05:33:13;;;;;;;14.67;9.67;;;;;;;;;;4995599;28;20026;-69
2021/10/09 05:35:38;;;;;;;17.93;10.07;;;;;;;;;;4982347;28;20033;-69
2021/10/09 05:38:03;;;;;;;14.90;9.03;;;;;;;;;;5012566;28;20072;-69
2021/10/09 05:40:29;;;;;;;13.20;8.97;;;;;;;;;;5012698;28;20395;-69
2021/10/09 05:42:54;;;;;;;12.63;9.40;;;;;;;;;;4979136;28;20061;-69
2021/10/09 05:45:19;;;;;;;12.93;9.32;;;;;;;;;;5013069;28;20029;-70
2021/10/09 05:47:46;;;;;;;11.67;8.87;;;;;;;;;;5011577;28;20053;-70
2021/10/09 05:50:12;;;;;;;13.45;9.18;;;;;;;;;;4993931;28;20034;-70
2021/10/09 05:52:48;;;;;;;12.97;9.57;;;;;;;;;;4995405;28;20030;-70
2021/10/09 05:55:20;;;;;;;15.63;9.57;;;;;;;;;;4978014;28;20439;-70
2021/10/09 06:59:59;;;;;;;12.55;9.10;;;;;;;;;;5013040;28;20193;-71
2021/10/09 07:02:25;;;;;;;13.65;9.32;;;;;;;;;;5011543;28;20135;-71
2021/10/09 07:04:50;;;;;;;15.18;10.07;;;;;;;;;;5011468;28;20029;-71
2021/10/09 07:07:18;;;;;;;13.68;9.05;;;;;;;;;;4993511;28;20022;-72
2021/10/09 07:09:43;;;;;;;13.30;8.90;;;;;;;;;;5011292;28;20033;-71
2021/10/09 07:12:08;;;;;;;13.18;9.50;;;;;;;;;;5010318;28;20014;-72
2021/10/09 07:14:33;;;;;;;13.65;9.30;;;;;;;;;;5011815;28;20018;-71
2021/10/09 07:16:59;;;;;;;12.52;8.95;;;;;;;;;;5010806;28;20068;-71
2021/10/09 07:19:24;;;;;;;17.58;10.00;;;;;;;;;;5011440;28;20022;-71
2021/10/09 07:21:49;;;;;;;13.32;8.80;;;;;;;;;;5010675;28;20513;-71
2021/10/09 07:24:15;;;;;;;10.30;7.90;;;;;;;;;;4993352;28;20018;-71
2021/10/09 07:26:40;;;;;;;15.15;8.65;;;;;;;;;;4990167;28;20038;-72
2021/10/09 07:29:05;;;;;;;13.35;7.63;;;;;;;;;;4994383;28;20025;-72
2021/10/09 07:31:30;;;;;;;13.80;6.95;;;;;;;;;;4993506;28;20365;-71
2021/10/09 07:33:55;;;;;;;9.80;6.47;;;;;;;;;;4993429;28;20030;-71
2021/10/09 07:36:21;;;;;;;10.55;6.80;;;;;;;;;;4993663;28;20381;-72
2021/10/09 07:38:46;;;;;;;12.45;6.50;;;;;;;;;;5011210;28;20487;-73
2021/10/09 07:41:11;;;;;;;11.15;5.95;;;;;;;;;;5011049;28;20439;-75
2021/10/09 07:43:36;;;;;;;10.73;5.93;;;;;;;;;;4991147;28;20034;-73
2021/10/09 07:46:02;;;;;;;9.57;6.22;;;;;;;;;;4989996;28;20536;-73
2021/10/09 07:48:27;;;;;;;10.63;5.60;;;;;;;;;;4996089;28;20045;-73
2021/10/09 07:50:52;;;;;;;9.23;5.60;;;;;;;;;;4993033;28;20113;-73
2021/10/09 07:53:17;;;;;;;9.90;5.65;;;;;;;;;;4992469;28;20124;-73
2021/10/09 07:55:43;;;;;;;10.80;5.38;;;;;;;;;;5008253;28;20029;-72
2021/10/09 07:58:08;;;;;;;8.55;5.25;;;;;;;;;;5010957;28;20132;-72
2021/10/09 08:00:33;;;;;;;12.05;5.45;;;;;;;;;;4997584;28;20054;-72
2021/10/09 08:03:03;;;;;;;9.95;5.82;;;;;;;;;;5005168;28;20025;-76
2021/10/09 08:05:28;;;;;;;10.73;5.10;;;;;;;;;;4992715;28;20491;-71
2021/10/09 08:07:53;;;;;;;9.75;5.07;;;;;;;;;;5010816;28;20030;-71
2021/10/09 08:10:19;;;;;;;10.88;5.63;;;;;;;;;;5010774;28;20605;-71
2021/10/09 08:12:44;;;;;;;8.60;4.57;;;;;;;;;;5006949;28;20041;-71
2021/10/09 08:15:09;;;;;;;7.32;4.82;;;;;;;;;;5011745;28;20036;-72
2021/10/09 08:17:35;;;;;;;9.05;4.53;;;;;;;;;;5014605;28;20026;-72
2021/10/09 08:20:00;;;;;;;9.73;5.10;;;;;;;;;;5014400;28;20036;-71
2021/10/09 08:22:27;;;;;;;10.98;5.15;;;;;;;;;;4996887;28;20483;-71
2021/10/09 08:25:21;;;;;;;8.63;4.70;;;;;;;;;;5005719;28;20343;-71
2021/10/09 08:36:01;;;;;;;5.18;2.47;;;;;;;;;;5014020;28;20042;-73
2021/10/09 08:41:10;;;;;;;7.57;2.95;;;;;;;;;;5014350;28;20032;-72
2021/10/09 08:43:36;;;;;;;8.07;3.35;;;;;;;;;;5013840;28;20025;-72
2021/10/09 08:46:01;;;;;;;5.40;3.00;;;;;;;;;;4980206;28;20032;-72
2021/10/09 08:48:28;;;;;;;7.30;3.20;;;;;;;;;;4996421;28;20064;-72
2021/10/09 08:50:57;;;;;;;6.50;2.47;;;;;;;;;;5013891;28;20507;-71
2021/10/09 08:53:36;;;;;;;5.50;3.10;;;;;;;;;;5027668;28;20129;-71
2021/10/09 08:56:01;;;;;;;5.05;2.75;;;;;;;;;;5010201;28;20057;-72
2021/10/09 08:58:28;;;;;;;6.35;2.75;;;;;;;;;;5013193;28;20435;-71
2021/10/09 09:03:26;;;;;;;8.18;3.40;;;;;;;;;;5013956;28;20360;-72
2021/10/09 09:08:30;;;;;;;7.07;3.75;;;;;;;;;;5012592;28;20124;-72
2021/10/09 09:27:48;;;;;;;8.43;2.67;;;;;;;;;;5011747;28;20100;-73
2021/10/09 09:41:11;;;;;;;7.57;2.65;;;;;;;;;;5012337;28;20072;-72
2021/10/09 09:43:40;;;;;;;3.97;1.88;;;;;;;;;;5012784;28;20022;-71
2021/10/09 09:46:24;;;;;;;6.13;2.35;;;;;;;;;;5012637;28;20041;-71
2021/10/09 09:48:50;;;;;;;4.57;2.78;;;;;;;;;;5012167;28;20476;-72
2021/10/09 09:51:16;;;;;;;5.78;3.05;;;;;;;;;;4994465;28;20028;-72
2021/10/09 09:53:42;;;;;;;7.05;2.92;;;;;;;;;;5012162;28;20396;-72
2021/10/09 09:56:08;;;;;;;5.57;2.40;;;;;;;;;;4993749;28;20026;-73
2021/10/09 09:58:43;;;;;;;5.22;1.90;;;;;;;;;;5012286;28;20096;-72
2021/10/09 10:01:10;;;;;;;4.03;1.70;;;;;;;;;;5010974;28;20025;-72
2021/10/09 10:03:36;;;;;;;4.25;2.10;;;;;;;;;;4994718;28;20084;-72
2021/10/09 10:06:02;;;;;;;4.63;1.85;;;;;;;;;;5011973;28;20026;-72
2021/10/09 10:08:27;;;;;;;4.72;2.40;;;;;;;;;;4993093;28;20025;-72
2021/10/09 10:10:56;;;;;;;3.00;1.92;;;;;;;;;;4994798;28;20113;-71
2021/10/09 10:13:25;;;;;;;1.83;1.45;;;;;;;;;;5011783;28;20022;-72
2021/10/09 10:15:53;;;;;;;4.47;1.85;;;;;;;;;;5012336;28;20029;-71
2021/10/09 10:18:38;;;;;;;4.68;2.22;;;;;;;;;;5011076;28;20059;-71
2021/10/09 10:21:03;;;;;;;;;;;;;;;;;;4994774;28;20100;-72
2021/10/09 10:23:40;;;;;;;2.40;1.33;;;;;;;;;;5011234;28;19971;-72
2021/10/09 10:26:21;;;;;;;3.05;2.05;;;;;;;;;;4988086;28;20033;-72
2021/10/09 10:28:46;;;;;;;4.03;1.40;;;;;;;;;;5002803;28;20433;-72
2021/10/09 10:31:11;;;;;;;4.10;1.17;;;;;;;;;;4994446;28;20057;-72
2021/10/09 10:33:42;;;;;;;1.98;1.17;;;;;;;;;;5012490;28;20088;-72
2021/10/09 10:36:08;;;;;;;3.25;1.50;;;;;;;;;;5011024;28;20021;-72
2021/10/09 10:38:36;;;;;;;3.40;1.25;;;;;;;;;;5010110;28;20014;-73
2021/10/09 10:41:06;;;;;;;1.27;1.17;;;;;;;;;;5001239;28;20219;-73
2021/10/09 10:49:05;;;;;;;2.72;1.02;;;;;;;;;;4997567;28;20511;-73
2021/10/09 10:54:32;;;;;;;1.52;0.82;;;;;;;;;;5011010;28;20506;-73
2021/10/09 10:59:32;;;;;;;0.87;0.87;;;;;;;;;;5011757;28;20492;-71
2021/10/09 11:02:06;;;;;;;0.95;0.80;;;;;;;;;;5011631;28;20048;-71
2021/10/09 11:04:42;;;;;;;1.70;1.17;;;;;;;;;;5005070;28;20464;-73
2021/10/09 11:07:08;;;;;;;1.20;0.82;;;;;;;;;;5004930;28;20022;-72
2021/10/09 11:09:34;;;;;;;0.98;0.70;;;;;;;;;;5010168;28;20041;-73
2021/10/09 11:12:00;;;;;;;1.83;0.73;;;;;;;;;;5011484;28;20032;-72
2021/10/09 11:14:29;;;;;;;1.92;0.88;;;;;;;;;;4993069;28;20034;-74
2021/10/09 11:17:04;;;;;;;0.50;0.40;;;;;;;;;;4993748;28;20076;-73
2021/10/09 11:19:50;;;;;;;1.88;0.60;;;;;;;;;;4994037;28;20052;-73
2021/10/09 11:22:17;;;;;;;1.58;0.50;;;;;;;;;;5002332;28;20028;-73
2021/10/09 11:24:46;;;;;;;1.40;0.50;;;;;;;;;;5011386;28;20041;-72
2021/10/09 11:27:13;;;;;;;1.73;0.60;;;;;;;;;;5012241;28;20087;-73
2021/10/09 11:29:39;;;;;;;1.45;0.50;;;;;;;;;;4994194;28;20033;-72
2021/10/09 11:32:05;;;;;;;2.65;0.80;;;;;;;;;;5010301;28;20025;-73
2021/10/09 11:34:31;;;;;;;0.50;0.40;;;;;;;;;;5010261;28;20045;-73
2021/10/09 11:37:05;;;;;;;1.95;0.55;;;;;;;;;;4991009;28;20017;-73
2021/10/09 11:39:30;;;;;;;;;;;;;;;;;;4997451;28;20033;-72
2021/10/09 11:42:10;;;;;;;0.73;0.50;;;;;;;;;;5026548;28;19906;-73
2021/10/09 11:44:40;;;;;;;0.73;0.52;;;;;;;;;;4993549;28;20029;-73
2021/10/09 11:47:22;;;;;;;0.40;0.40;;;;;;;;;;4993770;28;20160;-81
2021/10/09 11:55:37;;;;;;;0.40;0.40;;;;;;;;;;5010964;28;20512;-73
2021/10/09 11:58:03;;;;;;;2.85;0.52;;;;;;;;;;5013978;28;20517;-72
2021/10/09 12:00:28;;;;;;;0.50;0.50;;;;;;;;;;5014623;28;20473;-72
2021/10/09 12:02:57;;;;;;;1.35;0.35;;;;;;;;;;5014327;28;20018;-71
2021/10/09 12:05:22;;;;;;;2.85;0.60;;;;;;;;;;5013784;28;20014;-72
2021/10/09 12:08:26;;;;;;;1.00;0.55;;;;;;;;;;4996906;28;20026;-72
2021/10/09 12:11:08;;;;;;;2.05;0.47;;;;;;;;;;4915002;29;20083;-75
2021/10/09 12:13:52;;;;;;;1.85;0.60;;;;;;;;;;4915940;29;20032;-73
2021/10/09 12:16:21;;;;;;;1.37;0.90;;;;;;;;;;4915240;29;20028;-74
2021/10/09 12:18:54;;;;;;;0.90;0.70;;;;;;;;;;4904714;29;20039;-74
2021/10/09 12:21:19;;;;;;;1.27;0.77;;;;;;;;;;4899822;29;20068;-74
2021/10/09 12:23:45;;;;;;;0.90;0.70;;;;;;;;;;4915083;29;20051;-74
2021/10/09 12:26:11;;;;;;;2.00;0.70;;;;;;;;;;4908959;29;20163;-74
2021/10/09 12:28:56;;;;;;;1.08;0.90;;;;;;;;;;4913010;29;20478;-73
2021/10/09 12:31:28;;;;;;;3.35;0.65;;;;;;;;;;4905729;29;20042;-73
2021/10/09 12:33:53;;;;;;;0.93;0.80;;;;;;;;;;4905396;29;20425;-74
2021/10/09 12:36:37;;;;;;;0.70;0.60;;;;;;;;;;4908961;29;20121;-73
2021/10/09 12:39:19;;;;;;;0.95;0.60;;;;;;;;;;4913826;29;20578;-74
2021/10/09 12:41:44;;;;;;;1.60;0.60;;;;;;;;;;4910844;29;20402;-74
2021/10/09 12:44:09;;;;;;;1.33;0.50;;;;;;;;;;4936260;28;20570;-73
2021/10/09 12:46:34;;;;;;;1.40;0.80;;;;;;;;;;4992395;28;20026;-72
2021/10/09 12:49:00;;;;;;;0.83;0.50;;;;;;;;;;5006692;28;20041;-73
2021/10/09 12:51:25;;;;;;;2.03;0.57;;;;;;;;;;5002414;28;20025;-73
2021/10/09 12:53:53;;;;;;;1.67;0.50;;;;;;;;;;4991316;28;20273;-73
2021/10/09 12:56:18;;;;;;;1.45;0.60;;;;;;;;;;4994653;28;20595;-73
2021/10/09 12:58:43;;;;;;;1.63;0.70;;;;;;;;;;4999908;28;20109;-74
2021/10/09 13:01:08;;;;;;;1.33;0.70;;;;;;;;;;4975724;28;20312;-75
2021/10/09 13:03:33;;;;;;;0.90;0.60;;;;;;;;;;5008935;28;20026;-75
2021/10/09 13:05:59;;;;;;;0.70;0.40;;;;;;;;;;5010670;28;20018;-75
2021/10/09 13:08:24;;;;;;;0.83;0.57;;;;;;;;;;4994115;28;20034;-74
2021/10/09 13:10:50;;;;;;;0.70;0.40;;;;;;;;;;5010455;28;20060;-75
2021/10/09 13:13:15;;;;;;;0.75;0.50;;;;;;;;;;4998152;28;20277;-74
2021/10/09 13:15:40;;;;;;;1.67;0.57;;;;;;;;;;4978414;28;20125;-74
2021/10/09 13:18:05;;;;;;;1.87;0.60;;;;;;;;;;5011934;28;20758;-73
2021/10/09 13:20:35;;;;;;;2.70;0.50;;;;;;;;;;4995740;28;20018;-73
2021/10/09 13:23:00;;;;;;;0.50;0.40;;;;;;;;;;5003362;28;20575;-74
2021/10/09 13:25:25;;;;;;;1.85;0.40;;;;;;;;;;4991401;28;20026;-72
2021/10/09 13:27:50;;;;;;;0.50;0.40;;;;;;;;;;4991403;28;20490;-73
2021/10/09 13:30:16;;;;;;;1.87;0.40;;;;;;;;;;5010670;28;20026;-73
2021/10/09 13:32:41;;;;;;;0.67;0.50;;;;;;;;;;4977782;28;20257;-73
2021/10/09 13:35:06;;;;;;;1.42;0.45;;;;;;;;;;5011421;28;20022;-73
2021/10/09 13:37:36;;;;;;;1.38;0.52;;;;;;;;;;4993816;28;20365;-73
2021/10/09 13:40:02;;;;;;;1.35;0.55;;;;;;;;;;4994806;28;20400;-73
2021/10/09 13:42:27;;;;;;;0.90;0.40;;;;;;;;;;4993870;28;20017;-73
2021/10/09 13:44:53;;;;;;;1.20;0.40;;;;;;;;;;4993543;28;20022;-74
2021/10/09 13:47:18;;;;;;;1.00;0.50;;;;;;;;;;4990980;28;20288;-74
2021/10/09 13:49:43;;;;;;;1.20;0.70;;;;;;;;;;5011747;28;20276;-73
2021/10/09 13:52:08;;;;;;;1.15;0.50;;;;;;;;;;4993389;28;20103;-72
2021/10/09 13:54:33;;;;;;;1.08;0.40;;;;;;;;;;4988945;28;20077;-72
2021/10/09 13:56:58;;;;;;;1.90;0.50;;;;;;;;;;5009573;28;20432;-71
2021/10/09 13:59:24;;;;;;;0.68;0.40;;;;;;;;;;4993049;28;20309;-72
2021/10/09 14:01:49;;;;;;;1.70;0.80;;;;;;;;;;5011236;28;20025;-73
2021/10/09 14:04:15;;;;;;;0.93;0.77;;;;;;;;;;4993791;28;20022;-75
2021/10/09 14:06:40;;;;;;;1.40;0.65;;;;;;;;;;4990928;28;20015;-73
2021/10/09 14:09:05;;;;;;;1.73;0.75;;;;;;;;;;5005586;28;20058;-73
2021/10/09 14:11:31;;;;;;;0.85;0.50;;;;;;;;;;4993844;28;20422;-73
2021/10/09 14:13:56;;;;;;;1.73;0.80;;;;;;;;;;4992998;28;20120;-73
2021/10/09 14:16:21;;;;;;;1.20;0.60;;;;;;;;;;4992171;28;20026;-73
2021/10/09 14:18:46;;;;;;;1.35;0.50;;;;;;;;;;4992382;28;20033;-72
2021/10/09 14:21:12;;;;;;;0.98;0.50;;;;;;;;;;4991394;28;20261;-74
2021/10/09 14:23:38;;;;;;;0.85;0.40;;;;;;;;;;5010265;28;20029;-73
2021/10/09 14:26:03;;;;;;;1.48;0.43;;;;;;;;;;5005650;28;20033;-73
2021/10/09 14:28:29;;;;;;;1.50;0.70;;;;;;;;;;5010730;28;20021;-73
2021/10/09 14:30:54;;;;;;;1.13;0.80;;;;;;;;;;5010325;28;20272;-75
2021/10/09 14:33:19;;;;;;;2.60;0.90;;;;;;;;;;5009343;28;20030;-74
2021/10/09 14:35:45;;;;;;;0.85;0.50;;;;;;;;;;4977122;28;20395;-74
2021/10/09 14:38:11;;;;;;;2.60;1.15;;;;;;;;;;4992752;28;20420;-74
2021/10/09 14:40:36;;;;;;;2.30;0.70;;;;;;;;;;5009955;28;20025;-73
2021/10/09 14:43:02;;;;;;;1.55;0.68;;;;;;;;;;4988857;28;20083;-73
2021/10/09 14:45:28;;;;;;;2.47;0.93;;;;;;;;;;4994151;28;20032;-72
2021/10/09 14:48:01;;;;;;;1.00;0.60;;;;;;;;;;4994424;28;20053;-73
2021/10/09 15:20:13;;;;;;;3.53;2.25;;;;;;;;;;4879008;29;20036;-73
2021/10/09 15:22:38;;;;;;;3.30;2.20;;;;;;;;;;4877817;29;20036;-73
2021/10/09 15:25:04;;;;;;;3.17;2.05;;;;;;;;;;4890649;29;20663;-73
2021/10/09 15:27:29;;;;;;;4.68;1.85;;;;;;;;;;4897845;29;20538;-73
2021/10/09 15:29:55;;;;;;;2.65;1.80;;;;;;;;;;4882387;29;20484;-74
2021/10/09 15:32:20;;;;;;;3.95;1.63;;;;;;;;;;4913993;29;20032;-73
2021/10/09 15:34:45;;;;;;;3.47;1.40;;;;;;;;;;4934674;29;20179;-73
2021/10/09 15:37:11;;;;;;;2.35;1.60;;;;;;;;;;4930335;28;20040;-72
2021/10/09 15:39:36;;;;;;;2.13;1.77;;;;;;;;;;4997631;28;20035;-72
2021/10/09 15:42:02;;;;;;;4.93;1.92;;;;;;;;;;4994207;28;20472;-72
2021/10/09 15:44:27;;;;;;;3.53;1.75;;;;;;;;;;4993968;28;20342;-72
2021/10/09 15:46:53;;;;;;;4.68;1.50;;;;;;;;;;5011070;28;20477;-72
2021/10/09 15:49:18;;;;;;;3.85;1.80;;;;;;;;;;4994833;28;20121;-74
2021/10/09 15:51:43;;;;;;;5.18;2.10;;;;;;;;;;4994075;28;20030;-74
2021/10/09 15:54:08;;;;;;;3.60;2.10;;;;;;;;;;4995643;28;20519;-74
2021/10/09 15:56:33;;;;;;;3.78;2.22;;;;;;;;;;5008837;28;20057;-73
2021/10/09 15:58:59;;;;;;;5.45;2.22;;;;;;;;;;5002139;28;20065;-74
2021/10/09 16:01:26;;;;;;;3.50;2.25;;;;;;;;;;4998332;28;20168;-72
2021/10/09 16:03:51;;;;;;;3.72;2.40;;;;;;;;;;5015023;28;20056;-74
2021/10/09 16:06:16;;;;;;;2.92;2.17;;;;;;;;;;4997835;28;20101;-73
2021/10/09 16:08:41;;;;;;;2.90;1.60;;;;;;;;;;4996690;28;20103;-73
2021/10/09 16:11:07;;;;;;;3.72;1.98;;;;;;;;;;5014364;28;20022;-72
2021/10/09 16:13:32;;;;;;;4.70;2.22;;;;;;;;;;4997179;28;20475;-72
2021/10/09 16:15:58;;;;;;;3.25;2.20;;;;;;;;;;5014077;28;20037;-72
2021/10/09 16:18:23;;;;;;;8.57;2.72;;;;;;;;;;5019596;28;20206;-72
2021/10/09 16:20:48;;;;;;;4.90;2.60;;;;;;;;;;4996582;28;20492;-73
2021/10/09 16:23:14;;;;;;;3.13;2.25;;;;;;;;;;4996609;28;20026;-73
2021/10/09 16:25:39;;;;;;;5.88;2.10;;;;;;;;;;4993368;28;20033;-74
2021/10/09 16:28:04;;;;;;;5.00;2.60;;;;;;;;;;5008866;28;20360;-71
2021/10/09 16:30:29;;;;;;;4.63;2.40;;;;;;;;;;5014910;28;20042;-76
2021/10/09 16:32:54;;;;;;;4.45;2.20;;;;;;;;;;5013760;28;20109;-73
2021/10/09 16:35:19;;;;;;;5.03;3.25;;;;;;;;;;4997258;28;20025;-73
2021/10/09 16:37:45;;;;;;;3.17;2.30;;;;;;;;;;5022730;28;20341;-72
2021/10/09 16:40:10;;;;;;;4.22;2.58;;;;;;;;;;5013659;28;20053;-76
2021/10/09 16:42:35;;;;;;;3.50;2.10;;;;;;;;;;4996490;28;20121;-75
2021/10/09 16:45:01;;;;;;;4.20;2.42;;;;;;;;;;5013893;28;20407;-72
2021/10/09 16:47:26;;;;;;;6.03;2.50;;;;;;;;;;4997737;28;20041;-75
2021/10/09 16:49:51;;;;;;;5.72;2.70;;;;;;;;;;4980158;28;20033;-73
2021/10/09 16:52:16;;;;;;;4.57;2.75;;;;;;;;;;4995190;28;20030;-73
2021/10/09 16:54:42;;;;;;;7.22;3.80;;;;;;;;;;5011407;28;20038;-71
2021/10/09 16:57:08;;;;;;;5.97;3.85;;;;;;;;;;4991157;28;20049;-73
2021/10/09 16:59:33;;;;;;;7.82;4.22;;;;;;;;;;5016270;28;20041;-73
2021/10/09 17:01:58;;;;;;;7.93;3.72;;;;;;;;;;5000118;28;20632;-73
2021/10/09 17:04:23;;;;;;;6.13;3.88;;;;;;;;;;5013619;28;20064;-74
2021/10/09 17:06:49;;;;;;;7.20;3.80;;;;;;;;;;5013306;28;20026;-73
2021/10/09 17:09:15;;;;;;;5.97;3.63;;;;;;;;;;4995146;28;20160;-73
2021/10/09 17:11:40;;;;;;;6.13;3.70;;;;;;;;;;5013374;28;20057;-73
2021/10/09 17:14:05;;;;;;;7.22;3.80;;;;;;;;;;5016486;28;20041;-73
2021/10/09 17:16:30;;;;;;;6.43;4.10;;;;;;;;;;5018684;28;20554;-73
2021/10/09 17:19:03;;;;;;;7.53;4.10;;;;;;;;;;4995466;28;20041;-73
2021/10/09 17:21:29;;;;;;;6.20;4.25;;;;;;;;;;5029790;28;20021;-72